createdAt,value
2018-06-07T00:00:26.548Z,19.47
2018-06-07T00:02:55.749Z,19.48
2018-06-07T00:05:24.695Z,19.56
2018-06-07T00:07:53.896Z,19.50
2018-06-07T00:10:23.081Z,19.45
2018-06-07T00:12:52.268Z,19.34
2018-06-07T00:15:21.460Z,19.22
2018-06-07T00:17:50.652Z,19.21
2018-06-07T00:20:19.853Z,19.32
2018-06-07T00:22:49.035Z,19.38
2018-06-07T00:25:18.234Z,19.33
2018-06-07T00:27:47.416Z,19.30
2018-06-07T00:30:16.612Z,19.20
2018-06-07T00:32:45.795Z,19.10
2018-06-07T00:35:14.992Z,19.05
2018-06-07T00:37:44.167Z,19.02
2018-06-07T00:40:13.352Z,19.04
2018-06-07T00:42:42.533Z,19.05
2018-06-07T00:45:11.717Z,18.96
2018-06-07T00:47:40.901Z,18.92
2018-06-07T00:50:10.075Z,18.88
2018-06-07T00:52:39.229Z,18.82
2018-06-07T00:55:08.389Z,18.76
2018-06-07T00:57:37.315Z,18.76
2018-06-07T01:00:06.500Z,18.72
2018-06-07T01:02:35.684Z,18.77
2018-06-07T01:05:05.383Z,18.80
2018-06-07T01:07:34.571Z,18.78
2018-06-07T01:10:03.541Z,18.77
2018-06-07T01:12:32.723Z,18.70
2018-06-07T01:15:01.892Z,18.66
2018-06-07T01:17:31.101Z,18.60
2018-06-07T01:20:00.249Z,18.52
2018-06-07T01:22:29.428Z,18.47
2018-06-07T01:24:58.612Z,18.54
2018-06-07T01:27:33.043Z,18.63
2018-06-07T01:30:24.820Z,18.69
2018-06-07T01:33:27.385Z,18.56
2018-06-07T01:35:58.488Z,18.47
2018-06-07T01:38:44.868Z,18.42
2018-06-07T01:41:14.040Z,18.34
2018-06-07T01:43:43.249Z,18.34
2018-06-07T01:46:12.427Z,18.25
2018-06-07T01:48:41.616Z,18.24
2018-06-07T01:51:10.799Z,18.27
2018-06-07T01:53:39.984Z,17.81
2018-06-07T01:56:09.168Z,17.92
2018-06-07T01:58:38.350Z,17.92
2018-06-07T02:01:07.544Z,17.99
2018-06-07T02:03:37.271Z,17.99
2018-06-07T02:06:06.453Z,18.03
2018-06-07T02:08:35.625Z,17.99
2018-06-07T02:11:04.808Z,18.04
2018-06-07T02:13:33.979Z,18.05
2018-06-07T02:16:03.181Z,17.97
2018-06-07T02:18:32.360Z,17.96
2018-06-07T02:21:01.532Z,17.86
2018-06-07T02:23:30.712Z,17.86
2018-06-07T02:25:59.884Z,17.72
2018-06-07T02:28:29.068Z,17.68
2018-06-07T02:30:58.009Z,17.63
2018-06-07T02:33:27.200Z,17.61
2018-06-07T02:35:56.380Z,17.61
2018-06-07T02:38:25.562Z,17.61
2018-06-07T02:40:54.832Z,17.56
2018-06-07T02:43:24.012Z,17.58
2018-06-07T02:45:53.196Z,17.60
2018-06-07T02:48:22.374Z,17.60
2018-06-07T02:50:51.551Z,17.63
2018-06-07T02:53:20.748Z,17.71
2018-06-07T02:55:49.916Z,17.82
2018-06-07T02:58:19.104Z,17.76
2018-06-07T03:00:48.249Z,17.74
2018-06-07T03:03:17.403Z,17.73
2018-06-07T03:05:46.562Z,17.61
2018-06-07T03:08:15.728Z,17.67
2018-06-07T03:10:44.649Z,17.63
2018-06-07T03:13:13.840Z,17.50
2018-06-07T03:15:42.995Z,17.39
2018-06-07T03:18:12.145Z,17.44
2018-06-07T03:20:41.296Z,17.43
2018-06-07T03:23:10.525Z,17.47
2018-06-07T03:25:39.680Z,17.50
2018-06-07T03:28:08.844Z,17.46
2018-06-07T03:30:38.000Z,17.44
2018-06-07T03:33:07.165Z,17.44
2018-06-07T03:35:36.325Z,17.45
2018-06-07T03:38:05.508Z,17.49
2018-06-07T03:40:34.647Z,17.39
2018-06-07T03:43:03.804Z,17.48
2018-06-07T03:45:32.959Z,17.47
2018-06-07T03:48:01.888Z,17.51
2018-06-07T03:50:31.045Z,17.53
2018-06-07T03:53:00.197Z,17.55
2018-06-07T03:55:29.347Z,17.42
2018-06-07T03:57:58.280Z,17.56
2018-06-07T04:00:27.477Z,17.65
2018-06-07T04:02:56.644Z,17.56
2018-06-07T04:05:25.823Z,17.50
2018-06-07T04:07:55.008Z,17.45
2018-06-07T04:10:24.184Z,17.59
2018-06-07T04:12:53.369Z,17.54
2018-06-07T04:15:22.545Z,17.62
2018-06-07T04:17:51.727Z,17.62
2018-06-07T04:20:20.945Z,17.57
2018-06-07T04:22:50.127Z,17.41
2018-06-07T04:25:19.309Z,17.41
2018-06-07T04:27:49.396Z,17.49
2018-06-07T04:30:18.577Z,17.47
2018-06-07T04:32:47.757Z,17.49
2018-06-07T04:35:16.935Z,17.64
2018-06-07T04:37:46.159Z,17.59
2018-06-07T04:40:15.336Z,17.54
2018-06-07T04:42:44.523Z,17.39
2018-06-07T04:45:13.704Z,17.61
2018-06-07T04:47:42.888Z,17.54
2018-06-07T04:50:12.065Z,17.65
2018-06-07T04:52:41.249Z,17.72
2018-06-07T04:55:10.425Z,17.56
2018-06-07T04:57:39.613Z,17.73
2018-06-07T05:00:08.797Z,17.77
2018-06-07T05:02:37.976Z,17.87
2018-06-07T05:05:07.165Z,18.02
2018-06-07T05:07:36.344Z,18.07
2018-06-07T05:10:05.625Z,18.08
2018-06-07T05:12:34.795Z,18.11
2018-06-07T05:15:03.989Z,18.26
2018-06-07T05:17:33.161Z,18.29
2018-06-07T05:20:02.340Z,17.99
2018-06-07T05:22:31.533Z,18.15
2018-06-07T05:25:01.585Z,18.25
2018-06-07T05:27:31.025Z,18.33
2018-06-07T05:30:01.085Z,18.49
2018-06-07T05:32:30.661Z,18.56
2018-06-07T05:34:59.883Z,18.86
2018-06-07T05:37:29.344Z,18.80
2018-06-07T05:39:58.908Z,18.63
2018-06-07T05:42:28.226Z,18.74
2018-06-07T05:44:57.253Z,18.55
2018-06-07T05:47:26.627Z,18.61
2018-06-07T05:49:56.007Z,18.60
2018-06-07T05:52:25.544Z,18.69
2018-06-07T05:54:54.945Z,18.76
2018-06-07T05:57:24.358Z,19.06
2018-06-07T05:59:53.799Z,19.19
2018-06-07T06:02:23.290Z,19.31
2018-06-07T06:04:52.695Z,19.34
2018-06-07T06:07:22.279Z,19.28
2018-06-07T06:09:51.716Z,19.56
2018-06-07T06:12:21.049Z,19.71
2018-06-07T06:14:50.245Z,19.79
2018-06-07T06:17:19.631Z,20.00
2018-06-07T06:19:49.060Z,19.92
2018-06-07T06:22:18.476Z,19.99
2018-06-07T06:24:47.925Z,19.77
2018-06-07T06:27:17.198Z,20.15
2018-06-07T06:29:46.458Z,20.22
2018-06-07T06:32:15.760Z,20.12
2018-06-07T06:34:44.852Z,20.35
2018-06-07T06:37:14.017Z,20.47
2018-06-07T06:39:43.310Z,20.61
2018-06-07T06:42:12.506Z,20.60
2018-06-07T06:44:41.693Z,20.11
2018-06-07T06:47:10.914Z,20.46
2018-06-07T06:49:40.144Z,20.91
2018-06-07T06:52:09.470Z,21.23
2018-06-07T06:54:38.756Z,20.80
2018-06-07T06:57:08.137Z,20.97
2018-06-07T06:59:37.419Z,21.13
2018-06-07T07:02:06.752Z,21.11
2018-06-07T07:04:35.755Z,20.99
2018-06-07T07:07:05.097Z,21.20
2018-06-07T07:09:34.464Z,21.21
2018-06-07T07:12:03.695Z,21.17
2018-06-07T07:14:32.895Z,21.11
2018-06-07T07:17:02.163Z,20.84
2018-06-07T07:19:31.375Z,20.81
2018-06-07T07:22:00.634Z,20.70
2018-06-07T07:24:29.626Z,20.44
2018-06-07T07:26:58.859Z,20.68
2018-06-07T07:29:28.263Z,21.24
2018-06-07T07:31:57.525Z,21.46
2018-06-07T07:34:26.884Z,21.92
2018-06-07T07:36:56.186Z,22.31
2018-06-07T07:39:25.456Z,22.14
2018-06-07T07:41:54.667Z,22.29
2018-06-07T07:44:23.854Z,22.48
2018-06-07T07:46:53.087Z,22.92
2018-06-07T07:49:22.306Z,22.87
2018-06-07T07:51:51.600Z,23.44
2018-06-07T07:54:20.950Z,23.19
2018-06-07T07:56:50.202Z,22.84
2018-06-07T07:59:19.504Z,23.48
2018-06-07T08:01:48.817Z,23.63
2018-06-07T08:04:18.091Z,23.31
2018-06-07T08:06:47.479Z,23.67
2018-06-07T08:09:16.729Z,23.82
2018-06-07T08:11:45.946Z,24.19
2018-06-07T08:14:15.162Z,23.68
2018-06-07T08:16:44.362Z,24.25
2018-06-07T08:19:13.585Z,24.16
2018-06-07T08:21:42.834Z,24.01
2018-06-07T08:24:12.082Z,23.63
2018-06-07T08:26:41.277Z,23.90
2018-06-07T08:29:10.541Z,23.79
2018-06-07T08:31:39.772Z,23.90
2018-06-07T08:34:08.970Z,24.24
2018-06-07T08:36:38.252Z,23.84
2018-06-07T08:39:08.852Z,24.34
2018-06-07T08:41:38.050Z,24.03
2018-06-07T08:44:07.246Z,24.31
2018-06-07T08:46:36.454Z,24.65
2018-06-07T08:49:05.728Z,24.22
2018-06-07T08:51:34.723Z,25.14
2018-06-07T08:54:04.017Z,24.94
2018-06-07T08:56:33.068Z,24.59
2018-06-07T08:59:02.399Z,24.26
2018-06-07T09:01:31.583Z,24.21
2018-06-07T09:04:00.843Z,24.40
2018-06-07T09:06:30.104Z,24.16
2018-06-07T09:08:59.380Z,24.72
2018-06-07T09:11:28.770Z,24.19
2018-06-07T09:13:58.040Z,24.75
2018-06-07T09:16:27.279Z,24.90
2018-06-07T09:18:56.555Z,25.13
2018-06-07T09:21:25.844Z,25.08
2018-06-07T09:23:55.077Z,25.08
2018-06-07T09:26:24.366Z,24.95
2018-06-07T09:28:53.652Z,25.27
2018-06-07T09:31:22.887Z,25.31
2018-06-07T09:33:52.195Z,25.35
2018-06-07T09:36:21.483Z,25.53
2018-06-07T09:38:50.731Z,25.35
2018-06-07T09:41:19.976Z,25.34
2018-06-07T09:43:49.192Z,25.41
2018-06-07T09:46:18.214Z,25.72
2018-06-07T09:48:47.526Z,25.48
2018-06-07T09:51:16.817Z,25.40
2018-06-07T09:53:46.073Z,25.14
2018-06-07T09:56:15.327Z,26.02
2018-06-07T09:58:44.562Z,25.88
2018-06-07T10:01:13.797Z,25.52
2018-06-07T10:03:43.019Z,25.67
2018-06-07T10:06:12.297Z,25.80
2018-06-07T10:08:41.522Z,26.11
2018-06-07T10:11:10.725Z,26.16
2018-06-07T10:13:40.007Z,26.35
2018-06-07T10:16:09.260Z,26.83
2018-06-07T10:18:38.429Z,26.22
2018-06-07T10:21:07.691Z,26.96
2018-06-07T10:23:36.916Z,26.36
2018-06-07T10:26:06.165Z,26.58
2018-06-07T10:28:35.218Z,25.96
2018-06-07T10:31:04.410Z,26.42
2018-06-07T10:33:33.650Z,26.43
2018-06-07T10:36:02.886Z,26.70
2018-06-07T10:38:32.146Z,26.21
2018-06-07T10:41:01.107Z,26.31
2018-06-07T10:43:30.419Z,26.31
2018-06-07T10:45:59.607Z,26.96
2018-06-07T10:48:28.857Z,26.32
2018-06-07T10:50:58.072Z,26.81
2018-06-07T10:53:27.324Z,27.09
2018-06-07T10:55:56.608Z,27.08
2018-06-07T10:58:25.843Z,27.10
2018-06-07T11:00:55.145Z,26.76
2018-06-07T11:03:24.401Z,27.14
2018-06-07T11:05:53.671Z,27.28
2018-06-07T11:08:22.992Z,27.59
2018-06-07T11:10:52.566Z,27.65
2018-06-07T11:13:21.847Z,28.10
2018-06-07T11:15:51.208Z,29.33
2018-06-07T11:18:20.529Z,29.24
2018-06-07T11:20:49.606Z,28.95
2018-06-07T11:23:18.837Z,28.69
2018-06-07T11:25:48.137Z,28.75
2018-06-07T11:28:17.437Z,28.65
2018-06-07T11:30:46.851Z,28.39
2018-06-07T11:33:16.202Z,28.03
2018-06-07T11:35:45.582Z,28.22
2018-06-07T11:38:14.939Z,27.18
2018-06-07T11:40:44.005Z,27.29
2018-06-07T11:43:13.276Z,26.06
2018-06-07T11:45:42.507Z,26.50
2018-06-07T11:48:11.763Z,27.51
2018-06-07T11:50:41.128Z,27.28
2018-06-07T11:53:10.435Z,27.74
2018-06-07T11:55:39.731Z,28.82
2018-06-07T11:58:09.061Z,27.98
2018-06-07T12:00:38.305Z,28.98
2018-06-07T12:03:07.701Z,27.63
2018-06-07T12:05:37.033Z,28.13
2018-06-07T12:08:06.131Z,27.96
2018-06-07T12:10:35.161Z,30.09
2018-06-07T12:13:04.626Z,28.80
2018-06-07T12:15:33.944Z,28.51
2018-06-07T12:18:03.230Z,29.81
2018-06-07T12:20:32.334Z,30.21
2018-06-07T12:23:01.693Z,30.63
2018-06-07T12:25:31.064Z,31.29
2018-06-07T12:28:00.412Z,31.23
2018-06-07T12:30:29.543Z,31.36
2018-06-07T12:32:58.841Z,30.91
2018-06-07T12:35:28.211Z,29.98
2018-06-07T12:37:57.558Z,28.93
2018-06-07T12:40:26.883Z,28.46
2018-06-07T12:42:56.102Z,30.87
2018-06-07T12:45:25.295Z,29.41
2018-06-07T12:47:54.554Z,28.70
2018-06-07T12:50:23.824Z,30.44
2018-06-07T12:52:53.100Z,29.70
2018-06-07T12:55:22.457Z,28.65
2018-06-07T12:57:51.782Z,29.58
2018-06-07T13:00:21.138Z,29.33
2018-06-07T13:02:50.414Z,28.99
2018-06-07T13:05:19.517Z,29.49
2018-06-07T13:07:48.978Z,29.78
2018-06-07T13:10:18.389Z,28.13
2018-06-07T13:12:47.727Z,28.66
2018-06-07T13:15:16.869Z,28.43
2018-06-07T13:17:46.211Z,28.71
2018-06-07T13:20:15.615Z,29.70
2018-06-07T13:22:45.050Z,28.52
2018-06-07T13:25:14.476Z,28.93
2018-06-07T13:27:43.898Z,30.57
2018-06-07T13:30:13.344Z,31.37
2018-06-07T13:32:42.740Z,31.35
2018-06-07T13:35:11.828Z,29.73
2018-06-07T13:37:41.282Z,30.62
2018-06-07T13:40:10.828Z,31.33
2018-06-07T13:42:40.237Z,31.98
2018-06-07T13:45:09.349Z,31.83
2018-06-07T13:47:38.718Z,31.63
2018-06-07T13:50:08.160Z,31.84
2018-06-07T13:52:37.599Z,30.64
2018-06-07T13:55:07.146Z,29.80
2018-06-07T13:57:36.225Z,29.77
2018-06-07T14:00:05.606Z,30.72
2018-06-07T14:02:35.021Z,31.62
2018-06-07T14:05:04.330Z,30.48
2018-06-07T14:07:33.566Z,30.20
2018-06-07T14:10:02.919Z,30.20
2018-06-07T14:12:32.261Z,29.05
2018-06-07T14:15:01.542Z,28.67
2018-06-07T14:17:30.531Z,27.94
2018-06-07T14:19:59.801Z,27.56
2018-06-07T14:22:29.063Z,26.95
2018-06-07T14:24:58.307Z,27.07
2018-06-07T14:27:27.565Z,26.88
2018-06-07T14:29:56.848Z,26.52
2018-06-07T14:32:26.146Z,26.18
2018-06-07T14:34:55.362Z,25.87
2018-06-07T14:37:24.586Z,25.17
2018-06-07T14:39:53.802Z,24.07
2018-06-07T14:42:23.042Z,23.36
2018-06-07T14:44:52.200Z,23.05
2018-06-07T14:47:21.403Z,22.00
2018-06-07T14:49:50.808Z,21.59
2018-06-07T14:52:20.309Z,21.31
2018-06-07T14:54:49.597Z,21.14
2018-06-07T14:57:19.012Z,21.10
2018-06-07T14:59:48.311Z,20.88
2018-06-07T15:02:17.545Z,20.83
2018-06-07T15:04:46.765Z,20.76
2018-06-07T15:07:16.061Z,20.61
2018-06-07T15:09:45.342Z,20.29
2018-06-07T15:12:14.749Z,20.29
2018-06-07T15:14:44.039Z,20.25
2018-06-07T15:17:13.360Z,20.03
2018-06-07T15:19:42.627Z,19.94
2018-06-07T15:22:11.670Z,19.96
2018-06-07T15:24:40.985Z,19.82
2018-06-07T15:27:10.282Z,19.62
2018-06-07T15:29:39.458Z,19.41
2018-06-07T15:32:08.652Z,19.26
2018-06-07T15:34:37.834Z,19.16
2018-06-07T15:37:07.017Z,19.04
2018-06-07T15:39:36.221Z,19.13
2018-06-07T15:42:05.402Z,18.90
2018-06-07T15:44:34.374Z,18.99
2018-06-07T15:47:03.544Z,18.98
2018-06-07T15:49:32.726Z,19.04
2018-06-07T15:52:01.911Z,18.96
2018-06-07T15:54:31.098Z,19.14
2018-06-07T15:57:00.304Z,19.23
2018-06-07T15:59:29.484Z,19.44
2018-06-07T16:01:58.728Z,19.34
2018-06-07T16:04:27.912Z,19.61
2018-06-07T16:06:57.100Z,19.55
2018-06-07T16:09:26.275Z,19.47
2018-06-07T16:11:55.484Z,19.66
2018-06-07T16:14:24.430Z,19.70
2018-06-07T16:16:53.709Z,19.54
2018-06-07T16:19:22.893Z,19.40
2018-06-07T16:21:52.089Z,19.30
2018-06-07T16:24:21.289Z,19.28
2018-06-07T16:26:50.471Z,19.30
2018-06-07T16:29:19.659Z,19.20
2018-06-07T16:31:48.847Z,19.42
2018-06-07T16:34:18.051Z,19.54
2018-06-07T16:36:47.245Z,19.75
2018-06-07T16:39:16.192Z,19.66
2018-06-07T16:41:45.381Z,19.47
2018-06-07T16:44:14.571Z,19.54
2018-06-07T16:46:43.752Z,19.22
2018-06-07T16:49:13.138Z,19.38
2018-06-07T16:51:42.311Z,19.48
2018-06-07T16:54:11.274Z,19.45
2018-06-07T16:56:40.456Z,19.56
2018-06-07T16:59:09.644Z,19.70
2018-06-07T17:01:38.816Z,19.67
2018-06-07T17:04:08.003Z,19.89
2018-06-07T17:06:37.183Z,20.05
2018-06-07T17:09:09.446Z,20.05
2018-06-07T17:11:38.584Z,20.07
2018-06-07T17:14:07.764Z,20.04
2018-06-07T17:16:36.944Z,19.71
2018-06-07T17:19:06.144Z,19.83
2018-06-07T17:21:35.341Z,19.87
2018-06-07T17:24:04.352Z,19.99
2018-06-07T17:26:33.540Z,19.93
2018-06-07T17:29:02.516Z,19.74
2018-06-07T17:31:31.712Z,19.78
2018-06-07T17:34:00.921Z,19.91
2018-06-07T17:36:29.869Z,20.04
2018-06-07T17:38:59.068Z,19.96
2018-06-07T17:41:28.286Z,19.84
2018-06-07T17:43:57.479Z,19.88
2018-06-07T17:46:26.685Z,19.86
2018-06-07T17:48:55.877Z,19.85
2018-06-07T17:51:25.070Z,19.97
2018-06-07T17:53:54.250Z,19.87
2018-06-07T17:56:23.437Z,19.88
2018-06-07T17:58:53.319Z,19.96
2018-06-07T18:01:22.697Z,19.77
2018-06-07T18:03:52.730Z,19.83
2018-06-07T18:06:22.217Z,19.90
2018-06-07T18:08:51.372Z,19.73
2018-06-07T18:11:20.535Z,19.74
2018-06-07T18:13:49.713Z,19.70
2018-06-07T18:16:19.093Z,19.71
2018-06-07T18:18:48.368Z,19.78
2018-06-07T18:21:17.621Z,19.86
2018-06-07T18:23:46.977Z,19.84
2018-06-07T18:26:16.258Z,19.87
2018-06-07T18:28:45.447Z,19.86
2018-06-07T18:31:14.612Z,20.04
2018-06-07T18:33:43.615Z,19.92
2018-06-07T18:36:12.857Z,19.85
2018-06-07T18:38:42.044Z,19.79
2018-06-07T18:41:11.308Z,19.80
2018-06-07T18:43:40.493Z,19.83
2018-06-07T18:46:09.662Z,19.79
2018-06-07T18:48:38.829Z,19.74
2018-06-07T18:51:08.139Z,19.69
2018-06-07T18:53:37.383Z,19.70
2018-06-07T18:56:06.317Z,19.73
2018-06-07T18:58:35.626Z,19.67
2018-06-07T19:01:04.808Z,19.61
2018-06-07T19:03:34.026Z,19.52
2018-06-07T19:06:03.288Z,19.37
2018-06-07T19:08:37.703Z,19.15
2018-06-07T19:11:06.962Z,19.07
2018-06-07T19:13:41.295Z,18.94
2018-06-07T19:16:10.485Z,18.88
2018-06-07T19:18:39.704Z,19.06
2018-06-07T19:21:09.016Z,19.14
2018-06-07T19:23:38.256Z,19.28
2018-06-07T19:26:12.683Z,19.34
2018-06-07T19:28:42.015Z,19.18
2018-06-07T19:31:11.200Z,19.26
2018-06-07T19:33:45.733Z,19.08
2018-06-07T19:36:15.035Z,19.07
2018-06-07T19:38:49.420Z,18.98
2018-06-07T19:41:24.129Z,18.86
2018-06-07T19:43:53.431Z,18.75
2018-06-07T19:46:22.612Z,18.74
2018-06-07T19:48:51.804Z,18.84
2018-06-07T19:51:20.997Z,18.99
2018-06-07T19:53:49.945Z,19.12
2018-06-07T19:56:19.140Z,19.08
2018-06-07T19:58:48.316Z,19.05
2018-06-07T20:01:17.485Z,19.07
2018-06-07T20:03:46.416Z,19.12
2018-06-07T20:06:15.580Z,19.10
2018-06-07T20:08:44.766Z,19.08
2018-06-07T20:11:13.900Z,19.15
2018-06-07T20:13:43.125Z,18.98
2018-06-07T20:16:12.334Z,18.87
2018-06-07T20:18:41.522Z,18.89
2018-06-07T20:21:11.377Z,18.73
2018-06-07T20:23:40.585Z,18.62
2018-06-07T20:26:09.852Z,18.52
2018-06-07T20:28:38.788Z,18.48
2018-06-07T20:31:08.044Z,18.38
2018-06-07T20:33:36.975Z,18.29
2018-06-07T20:36:06.228Z,17.93
2018-06-07T20:38:35.237Z,17.83
2018-06-07T20:41:04.578Z,17.82
2018-06-07T20:43:33.764Z,17.89
2018-06-07T20:46:02.934Z,17.92
2018-06-07T20:48:32.101Z,17.95
2018-06-07T20:51:01.378Z,17.98
2018-06-07T20:53:30.565Z,17.99
2018-06-07T20:55:59.745Z,17.96
2018-06-07T20:58:28.916Z,17.94
2018-06-07T21:00:58.077Z,18.01
2018-06-07T21:03:27.248Z,18.05
2018-06-07T21:05:56.448Z,17.98
2018-06-07T21:08:25.613Z,18.00
2018-06-07T21:10:54.803Z,18.02
2018-06-07T21:13:23.802Z,17.96
2018-06-07T21:15:52.968Z,17.92
2018-06-07T21:18:22.155Z,17.97
2018-06-07T21:20:51.309Z,18.20
2018-06-07T21:23:20.596Z,18.39
2018-06-07T21:25:49.760Z,18.52
2018-06-07T21:28:18.937Z,18.51
2018-06-07T21:30:48.213Z,18.47
2018-06-07T21:33:17.429Z,18.49
2018-06-07T21:35:46.592Z,18.44
2018-06-07T21:38:15.812Z,18.38
2018-06-07T21:40:45.078Z,18.37
2018-06-07T21:43:14.439Z,18.29
2018-06-07T21:45:43.608Z,18.26
2018-06-07T21:48:12.757Z,18.19
2018-06-07T21:50:41.925Z,18.19
2018-06-07T21:53:11.092Z,18.26
2018-06-07T21:55:40.276Z,18.06
2018-06-07T21:58:09.441Z,17.92
2018-06-07T22:00:38.621Z,17.95
2018-06-07T22:03:07.781Z,17.81
2018-06-07T22:05:36.951Z,17.92
2018-06-07T22:08:06.285Z,17.90
2018-06-07T22:10:35.571Z,17.87
2018-06-07T22:13:04.760Z,17.76
2018-06-07T22:15:33.953Z,17.85
2018-06-07T22:18:03.141Z,17.84
2018-06-07T22:20:32.330Z,17.88
2018-06-07T22:23:01.283Z,17.90
2018-06-07T22:25:30.477Z,17.93
2018-06-07T22:27:59.663Z,17.97
2018-06-07T22:30:28.855Z,18.03
2018-06-07T22:32:58.057Z,18.07
2018-06-07T22:35:27.295Z,18.06
2018-06-07T22:37:56.497Z,18.11
2018-06-07T22:40:25.677Z,18.23
2018-06-07T22:42:54.871Z,18.31
2018-06-07T22:45:24.061Z,18.26
2018-06-07T22:47:53.252Z,18.13
2018-06-07T22:50:22.440Z,18.19
2018-06-07T22:52:51.627Z,18.19
2018-06-07T22:55:20.817Z,18.04
2018-06-07T22:57:50.014Z,18.14
2018-06-07T23:00:19.181Z,18.29
2018-06-07T23:02:52.152Z,18.32
2018-06-07T23:05:21.316Z,18.29
2018-06-07T23:07:50.490Z,18.27
2018-06-07T23:10:19.652Z,18.20
2018-06-07T23:12:48.828Z,18.05
2018-06-07T23:15:17.997Z,18.04
2018-06-07T23:17:47.214Z,17.99
2018-06-07T23:20:16.352Z,18.04
2018-06-07T23:22:45.509Z,18.00
2018-06-07T23:25:14.680Z,18.00
2018-06-07T23:27:43.841Z,18.03
2018-06-07T23:30:12.771Z,18.04
2018-06-07T23:32:41.942Z,18.00
2018-06-07T23:35:11.108Z,18.06
2018-06-07T23:37:40.278Z,18.11
2018-06-07T23:40:09.479Z,18.15
2018-06-07T23:42:38.633Z,18.09
2018-06-07T23:45:07.799Z,18.10
2018-06-07T23:47:36.956Z,18.09
2018-06-07T23:50:06.121Z,18.00
2018-06-07T23:52:35.284Z,18.03
2018-06-07T23:55:04.451Z,18.07
2018-06-07T23:57:33.617Z,18.06
